Wilmington International Airport
KILM : now visible

Airfield :











YOU CAN JOIN US ON...

 
LOGIN :

Register | Disclaimer

   EN    FR    IT 

 









Legend :    VFR   Marginal VFR   IFR   Intensive IFR   Very Intensive IFR
Visi :
Ceiling :
>= 8 km
>= 3000ft
5 to 8 km
1000 to 3000 ft
1500m to 5 km
500 to 1000 ft
800 to 1500m
200 to 500 ft
< 800m
< 200 ft
Symbols :   Thunderstorms  Fog  Heavy snow  Heavy precipitations  Wind > 20 kt






- Airport Elevation : 32 ft
- IATA code : ILM


KILM - Wilmington International

CURRENT METAR :
  • 261553Z 24007KT 10SM FEW011 SCT090 20/18 A2986 RMK AO2 SLP112 T02000178

EXPIRED METARs :
  • 261453Z 19003KT 10SM SCT070 BKN095 19/17 A2987 RMK AO2 RAB31E42 SLP115 P0000 60013 T01890167 50002
  • 261353Z 00000KT 10SM BKN060 OVC090 17/17 A2988 RMK AO2 RAE31 SLP119 P0003 T01720167
  • 261325Z 27003KT 3SM -RA BR FEW004 BKN043 OVC095 17/17 A2990 RMK AO2 P0002 T01670167

TAF KILM
Valid from the 26 at 14:00 until the 27 at 12:00 UTC


261355Z 2614/2712 27003KT 3SM -RA BR FEW004 BKN045 OVC100
FM261600 20007KT P6SM BKN035
FM270000 23010G17KT P6SM -SHRA OVC025
TEMPO 2700/2703 2SM +SHRA BKN014



MET'MAP, your aeronautical weather chart ! - Copyright ORBIFLY December 2007 - Disclaimer

ORBIFLY MET'MAP TEAM :

Programming & Development : Alexandra Zaïnal
Concept & original design : Baudouin d'Aumeries
Assistance for programming : Marc-Olivier Méhu
Technical & hardware support : Manuel Goepfert

Contact : metmap@orbifly.com




SOURCES & CREDITS :

   NOAA       Earth
Advisory